createdAt,value
2023-02-15T00:01:09.696Z,63.43
2023-02-15T00:03:36.372Z,63.44
2023-02-15T00:06:03.679Z,64.87
2023-02-15T00:08:33.283Z,64.48
2023-02-15T00:11:06.705Z,65.16
2023-02-15T00:13:35.789Z,65.09
2023-02-15T00:16:07.289Z,65.15
2023-02-15T00:18:34.222Z,64.54
2023-02-15T00:21:07.950Z,64.73
2023-02-15T00:23:34.859Z,64.67
2023-02-15T00:26:10.425Z,64.25
2023-02-15T00:28:37.233Z,64.09
2023-02-15T00:31:13.681Z,64.00
2023-02-15T00:33:41.268Z,63.67
2023-02-15T00:36:09.024Z,63.84
2023-02-15T00:38:38.301Z,64.04
2023-02-15T00:41:06.619Z,64.11
2023-02-15T00:43:34.280Z,63.86
2023-02-15T00:46:01.384Z,64.93
2023-02-15T00:48:31.572Z,65.36
2023-02-15T00:50:59.680Z,65.33
2023-02-15T00:53:27.150Z,65.89
2023-02-15T00:55:54.062Z,66.41
2023-02-15T00:58:20.739Z,66.66
2023-02-15T01:00:48.269Z,67.24
2023-02-15T01:03:16.563Z,66.48
2023-02-15T01:05:43.454Z,65.78
2023-02-15T01:08:09.952Z,65.34
2023-02-15T01:10:37.400Z,64.39
2023-02-15T01:13:04.092Z,63.49
2023-02-15T01:15:30.599Z,63.24
2023-02-15T01:17:57.129Z,63.77
2023-02-15T01:20:28.405Z,63.79
2023-02-15T01:22:55.781Z,64.46
2023-02-15T01:25:24.066Z,64.13
2023-02-15T01:27:50.743Z,65.00
2023-02-15T01:30:17.874Z,64.79
2023-02-15T01:32:44.560Z,65.48
2023-02-15T01:35:11.580Z,65.85
2023-02-15T01:37:38.267Z,65.45
2023-02-15T01:40:07.546Z,65.39
2023-02-15T01:42:34.174Z,64.95
2023-02-15T01:45:23.315Z,64.52
2023-02-15T01:47:57.355Z,64.23
2023-02-15T01:50:33.377Z,64.25
2023-02-15T01:53:04.423Z,65.02
2023-02-15T01:55:35.502Z,65.64
2023-02-15T01:58:02.253Z,66.59
2023-02-15T02:00:29.669Z,66.29
2023-02-15T02:02:57.132Z,66.17
2023-02-15T02:05:23.690Z,66.62
2023-02-15T02:07:56.027Z,67.68
2023-02-15T02:10:24.043Z,67.97
2023-02-15T02:12:54.175Z,67.47
2023-02-15T02:15:24.838Z,66.88
2023-02-15T02:18:13.261Z,67.25
2023-02-15T02:20:48.728Z,67.08
2023-02-15T02:23:50.393Z,67.59
2023-02-15T02:26:39.838Z,68.20
2023-02-15T02:29:33.774Z,68.45
2023-02-15T02:32:24.945Z,67.79
2023-02-15T02:35:20.424Z,67.54
2023-02-15T02:38:00.872Z,68.50
2023-02-15T02:40:53.967Z,68.37
2023-02-15T02:43:34.320Z,67.45
2023-02-15T02:46:12.434Z,66.91
2023-02-15T02:48:39.523Z,66.73
2023-02-15T02:51:06.059Z,67.04
2023-02-15T02:53:33.729Z,67.33
2023-02-15T02:56:06.201Z,67.06
2023-02-15T02:58:45.140Z,67.33
2023-02-15T03:01:19.642Z,67.47
2023-02-15T03:03:52.676Z,67.75
2023-02-15T03:06:26.898Z,67.54
2023-02-15T03:08:59.647Z,67.17
2023-02-15T03:11:26.445Z,66.74
2023-02-15T03:13:53.082Z,66.85
2023-02-15T03:16:20.852Z,66.92
2023-02-15T03:18:49.884Z,68.30
2023-02-15T03:21:16.446Z,68.97
2023-02-15T03:23:42.934Z,68.54
2023-02-15T03:26:09.500Z,68.65
2023-02-15T03:28:44.434Z,68.07
2023-02-15T03:31:13.437Z,68.32
2023-02-15T03:33:45.341Z,67.26
2023-02-15T03:36:30.415Z,66.63
2023-02-15T03:39:11.578Z,67.67
2023-02-15T03:42:06.719Z,68.31
2023-02-15T03:44:38.553Z,68.69
2023-02-15T03:47:15.194Z,68.85
2023-02-15T03:50:03.078Z,69.43
2023-02-15T03:52:31.290Z,69.36
2023-02-15T03:54:58.130Z,69.24
2023-02-15T03:57:27.440Z,69.28
2023-02-15T03:59:57.107Z,67.64
2023-02-15T04:02:25.849Z,66.58
2023-02-15T04:04:52.340Z,67.86
2023-02-15T04:07:18.839Z,67.67
2023-02-15T04:09:45.646Z,67.54
2023-02-15T04:12:12.683Z,67.72
2023-02-15T04:14:56.103Z,68.30
2023-02-15T04:17:22.637Z,69.34
2023-02-15T04:19:49.130Z,68.35
2023-02-15T04:22:15.603Z,68.90
2023-02-15T04:24:42.067Z,69.28
2023-02-15T04:27:08.690Z,70.05
2023-02-15T04:29:35.202Z,71.29
2023-02-15T04:32:02.330Z,71.34
2023-02-15T04:34:29.465Z,70.82
2023-02-15T04:36:56.076Z,71.36
2023-02-15T04:39:22.575Z,71.55
2023-02-15T04:41:49.624Z,72.65
2023-02-15T04:44:16.394Z,71.80
2023-02-15T04:46:42.928Z,70.78
2023-02-15T04:49:09.907Z,70.27
2023-02-15T04:51:36.506Z,70.86
2023-02-15T04:54:03.053Z,70.97
2023-02-15T04:56:29.600Z,70.64
2023-02-15T04:58:56.306Z,68.99
2023-02-15T05:01:22.860Z,68.64
2023-02-15T05:03:49.351Z,68.44
2023-02-15T05:06:15.843Z,68.45
2023-02-15T05:08:42.346Z,68.81
2023-02-15T05:11:08.828Z,69.25
2023-02-15T05:13:35.706Z,68.46
2023-02-15T05:16:02.475Z,69.89
2023-02-15T05:18:29.240Z,69.13
2023-02-15T05:20:55.990Z,69.73
2023-02-15T05:23:22.560Z,70.13
2023-02-15T05:25:50.123Z,69.46
2023-02-15T05:28:16.668Z,69.36
2023-02-15T05:30:43.320Z,67.77
2023-02-15T05:33:10.020Z,67.44
2023-02-15T05:35:36.522Z,67.52
2023-02-15T05:38:03.041Z,67.03
2023-02-15T05:40:29.757Z,66.53
2023-02-15T05:42:57.506Z,68.21
2023-02-15T05:45:24.418Z,68.10
2023-02-15T05:47:51.012Z,69.21
2023-02-15T05:50:17.685Z,69.59
2023-02-15T05:52:44.222Z,69.50
2023-02-15T05:55:10.785Z,69.62
2023-02-15T05:57:37.260Z,70.25
2023-02-15T06:00:05.276Z,70.10
2023-02-15T06:02:38.716Z,71.71
2023-02-15T06:05:06.484Z,73.37
2023-02-15T06:07:33.095Z,73.20
2023-02-15T06:09:59.702Z,73.81
2023-02-15T06:12:26.252Z,73.67
2023-02-15T06:14:52.752Z,72.62
2023-02-15T06:17:19.355Z,72.63
2023-02-15T06:19:45.878Z,72.96
2023-02-15T06:22:12.555Z,72.29
2023-02-15T06:24:39.056Z,71.80
2023-02-15T06:27:05.537Z,71.95
2023-02-15T06:29:32.148Z,71.18
2023-02-15T06:31:58.730Z,72.33
2023-02-15T06:34:25.263Z,71.79
2023-02-15T06:36:54.605Z,72.66
2023-02-15T06:39:21.466Z,72.50
2023-02-15T06:41:48.393Z,72.92
2023-02-15T06:44:15.206Z,74.39
2023-02-15T06:46:41.781Z,76.35
2023-02-15T06:49:08.312Z,76.02
2023-02-15T06:51:35.049Z,75.50
2023-02-15T06:54:01.648Z,75.08
2023-02-15T06:56:28.436Z,75.58
2023-02-15T06:58:54.914Z,75.36
2023-02-15T07:01:21.420Z,76.46
2023-02-15T07:03:47.900Z,77.21
2023-02-15T07:06:15.105Z,76.82
2023-02-15T07:08:44.777Z,75.98
2023-02-15T07:11:11.607Z,75.95
2023-02-15T07:13:38.184Z,75.45
2023-02-15T07:16:05.046Z,75.85
2023-02-15T07:18:31.720Z,75.55
2023-02-15T07:20:58.231Z,74.95
2023-02-15T07:23:24.745Z,74.07
2023-02-15T07:25:58.050Z,72.64
2023-02-15T07:28:24.526Z,72.82
2023-02-15T07:30:51.657Z,71.38
2023-02-15T07:33:18.248Z,70.78
2023-02-15T07:35:49.186Z,69.93
2023-02-15T07:38:16.018Z,69.95
2023-02-15T07:40:43.449Z,70.16
2023-02-15T07:43:10.100Z,71.63
2023-02-15T07:45:36.698Z,72.04
2023-02-15T07:48:04.142Z,71.63
2023-02-15T07:50:30.637Z,71.23
2023-02-15T07:52:57.454Z,71.51
2023-02-15T07:55:24.026Z,70.44
2023-02-15T07:57:51.444Z,70.05
2023-02-15T08:00:20.179Z,70.07
2023-02-15T08:02:50.503Z,69.78
2023-02-15T08:05:16.980Z,69.76
2023-02-15T08:07:43.574Z,69.78
2023-02-15T08:10:10.285Z,70.27
2023-02-15T08:12:36.784Z,70.75
2023-02-15T08:15:03.339Z,73.35
2023-02-15T08:17:30.082Z,73.17
2023-02-15T08:19:56.556Z,73.09
2023-02-15T08:22:25.518Z,72.38
2023-02-15T08:24:52.599Z,71.56
2023-02-15T08:27:19.221Z,70.96
2023-02-15T08:29:45.742Z,71.09
2023-02-15T08:32:13.363Z,70.10
2023-02-15T08:34:44.234Z,70.25
2023-02-15T08:37:10.778Z,70.57
2023-02-15T08:39:37.413Z,71.31
2023-02-15T08:42:03.993Z,70.73
2023-02-15T08:44:30.720Z,70.84
2023-02-15T08:46:57.350Z,71.27
2023-02-15T08:49:24.707Z,71.12
2023-02-15T08:51:51.392Z,70.64
2023-02-15T08:54:20.113Z,71.25
2023-02-15T08:56:47.209Z,71.56
2023-02-15T08:59:17.225Z,71.46
2023-02-15T09:01:43.867Z,71.59
2023-02-15T09:04:10.794Z,72.32
2023-02-15T09:06:41.866Z,72.20
2023-02-15T09:09:08.986Z,72.38
2023-02-15T09:11:41.488Z,72.10
2023-02-15T09:14:12.535Z,72.17
2023-02-15T09:16:39.450Z,73.50
2023-02-15T09:19:06.938Z,73.57
2023-02-15T09:21:37.792Z,72.98
2023-02-15T09:24:10.044Z,74.01
2023-02-15T09:26:39.360Z,74.64
2023-02-15T09:29:05.865Z,74.44
2023-02-15T09:31:34.706Z,74.55
2023-02-15T09:34:01.549Z,74.40
2023-02-15T09:36:33.878Z,73.47
2023-02-15T09:39:09.476Z,73.16
2023-02-15T09:41:41.904Z,73.16
2023-02-15T09:44:28.944Z,73.16
2023-02-15T09:47:26.442Z,73.34
2023-02-15T09:50:14.850Z,73.69
2023-02-15T09:53:03.651Z,72.50
2023-02-15T09:55:48.297Z,71.47
2023-02-15T09:58:23.589Z,71.69
2023-02-15T10:01:06.085Z,71.23
2023-02-15T10:03:48.874Z,71.41
2023-02-15T10:06:23.282Z,70.71
2023-02-15T10:09:03.419Z,70.00
2023-02-15T10:12:02.509Z,69.76
2023-02-15T10:14:45.318Z,69.44
2023-02-15T10:17:16.033Z,69.61
2023-02-15T10:20:01.594Z,69.61
2023-02-15T10:22:51.370Z,67.80
2023-02-15T10:25:24.940Z,67.71
2023-02-15T10:27:51.642Z,67.92
2023-02-15T10:30:32.942Z,67.51
2023-02-15T10:33:14.774Z,68.30
2023-02-15T10:36:07.781Z,67.14
2023-02-15T10:38:49.726Z,65.85
2023-02-15T10:41:28.886Z,66.11
2023-02-15T10:44:05.407Z,65.71
2023-02-15T10:46:50.921Z,65.80
2023-02-15T10:49:22.745Z,66.21
2023-02-15T10:52:00.112Z,66.34
2023-02-15T10:54:41.952Z,66.98
2023-02-15T10:57:25.780Z,66.87
2023-02-15T11:00:17.169Z,66.58
2023-02-15T11:02:43.906Z,66.82
2023-02-15T11:05:27.385Z,66.68
2023-02-15T11:07:55.622Z,66.09
2023-02-15T11:10:42.606Z,65.73
2023-02-15T11:13:12.385Z,65.66
2023-02-15T11:15:44.942Z,65.89
2023-02-15T11:18:17.082Z,65.32
2023-02-15T11:20:52.823Z,64.82
2023-02-15T11:23:19.364Z,64.02
2023-02-15T11:25:53.426Z,63.75
2023-02-15T11:28:26.622Z,63.32
2023-02-15T11:30:56.977Z,63.12
2023-02-15T11:33:25.366Z,63.14
2023-02-15T11:35:57.016Z,62.53
2023-02-15T11:38:25.887Z,62.49
2023-02-15T11:40:58.434Z,63.14
2023-02-15T11:43:43.931Z,63.16
2023-02-15T11:46:12.989Z,62.67
2023-02-15T11:48:40.771Z,62.29
2023-02-15T11:51:13.523Z,62.24
2023-02-15T11:53:41.525Z,61.53
2023-02-15T11:56:15.377Z,61.25
2023-02-15T11:58:56.275Z,60.38
2023-02-15T12:01:25.842Z,60.36
2023-02-15T12:03:58.776Z,60.61
2023-02-15T12:06:28.610Z,60.75
2023-02-15T12:09:18.474Z,60.52
2023-02-15T12:11:45.130Z,60.38
2023-02-15T12:14:13.272Z,59.81
2023-02-15T12:16:54.977Z,59.85
2023-02-15T12:19:41.169Z,59.36
2023-02-15T12:22:28.997Z,58.85
2023-02-15T12:24:57.906Z,59.30
2023-02-15T12:27:31.885Z,59.92
2023-02-15T12:30:21.079Z,60.04
2023-02-15T12:32:53.521Z,59.35
2023-02-15T12:35:29.087Z,58.78
2023-02-15T12:38:01.786Z,59.13
2023-02-15T12:40:33.245Z,58.69
2023-02-15T12:43:00.115Z,59.52
2023-02-15T12:45:31.812Z,59.61
2023-02-15T12:48:13.363Z,59.07
2023-02-15T12:50:40.734Z,59.03
2023-02-15T12:53:31.298Z,59.15
2023-02-15T12:56:03.414Z,59.19
2023-02-15T12:58:34.463Z,59.37
2023-02-15T13:01:09.970Z,59.07
2023-02-15T13:03:39.418Z,58.96
2023-02-15T13:06:08.544Z,58.83
2023-02-15T13:08:45.781Z,58.15
2023-02-15T13:11:13.096Z,58.29
2023-02-15T13:13:51.745Z,56.92
2023-02-15T13:16:22.573Z,56.91
2023-02-15T13:18:51.674Z,56.63
2023-02-15T13:21:33.268Z,55.97
2023-02-15T13:24:04.126Z,55.86
2023-02-15T13:26:32.459Z,54.88
2023-02-15T13:29:26.454Z,55.11
2023-02-15T13:31:54.888Z,54.30
2023-02-15T13:34:25.404Z,54.02
2023-02-15T13:36:57.995Z,54.61
2023-02-15T13:39:44.103Z,53.42
2023-02-15T13:42:13.657Z,53.09
2023-02-15T13:45:28.181Z,52.59
2023-02-15T13:48:00.532Z,51.67
2023-02-15T13:50:51.726Z,50.92
2023-02-15T13:53:48.066Z,49.91
2023-02-15T13:56:22.668Z,51.71
2023-02-15T13:59:21.364Z,51.02
2023-02-15T14:01:54.246Z,51.07
2023-02-15T14:04:23.878Z,51.49
2023-02-15T14:07:09.327Z,51.24
2023-02-15T14:09:54.840Z,48.93
2023-02-15T14:12:47.736Z,47.12
2023-02-15T14:15:14.135Z,47.77
2023-02-15T14:17:53.714Z,46.85
2023-02-15T14:20:48.477Z,46.00
2023-02-15T14:23:43.358Z,44.86
2023-02-15T14:26:43.611Z,45.08
2023-02-15T14:29:19.075Z,42.85
2023-02-15T14:31:49.965Z,43.12
2023-02-15T14:34:22.364Z,48.54
2023-02-15T14:36:51.050Z,50.29
2023-02-15T14:39:17.584Z,50.41
2023-02-15T14:41:45.611Z,50.28
2023-02-15T14:44:47.634Z,50.78
2023-02-15T14:47:23.020Z,51.39
2023-02-15T14:49:49.497Z,51.65
2023-02-15T14:52:15.979Z,51.95
2023-02-15T14:54:42.400Z,50.67
2023-02-15T14:57:08.813Z,49.94
2023-02-15T14:59:40.939Z,50.77
2023-02-15T15:02:07.374Z,51.23
2023-02-15T15:04:41.378Z,51.86
2023-02-15T15:07:34.209Z,52.06
2023-02-15T15:10:15.921Z,52.58
2023-02-15T15:12:47.154Z,53.04
2023-02-15T15:15:29.021Z,53.38
2023-02-15T15:17:57.400Z,52.16
2023-02-15T15:20:26.988Z,52.22
2023-02-15T15:23:15.447Z,51.29
2023-02-15T15:26:15.655Z,51.61
2023-02-15T15:28:42.037Z,51.82
2023-02-15T15:31:17.620Z,51.47
2023-02-15T15:34:05.761Z,50.10
2023-02-15T15:36:47.352Z,48.44
2023-02-15T15:39:27.628Z,47.99
2023-02-15T15:41:53.962Z,47.63
2023-02-15T15:44:58.020Z,47.84
2023-02-15T15:47:38.059Z,47.45
2023-02-15T15:50:13.989Z,47.15
2023-02-15T15:52:43.675Z,46.88
2023-02-15T15:55:17.162Z,47.07
2023-02-15T15:57:45.630Z,47.85
2023-02-15T16:00:43.354Z,48.54
2023-02-15T16:03:26.388Z,49.05
2023-02-15T16:05:53.338Z,49.48
2023-02-15T16:08:46.111Z,49.88
2023-02-15T16:11:20.363Z,49.99
2023-02-15T16:13:49.583Z,50.43
2023-02-15T16:16:22.513Z,50.19
2023-02-15T16:18:49.403Z,49.92
2023-02-15T16:21:27.425Z,50.49
2023-02-15T16:24:00.850Z,50.54
2023-02-15T16:26:50.442Z,49.84
2023-02-15T16:29:19.397Z,50.18
2023-02-15T16:32:07.065Z,50.18
2023-02-15T16:34:33.848Z,52.77
2023-02-15T16:37:21.243Z,54.78
2023-02-15T16:39:47.898Z,55.15
2023-02-15T16:42:14.934Z,55.42
2023-02-15T16:44:41.522Z,56.08
2023-02-15T16:47:17.946Z,55.04
2023-02-15T16:49:48.042Z,54.93
2023-02-15T16:52:20.342Z,55.63
2023-02-15T16:54:47.011Z,56.00
2023-02-15T16:57:22.155Z,56.67
2023-02-15T16:59:56.555Z,56.97
2023-02-15T17:02:53.163Z,56.96
2023-02-15T17:05:18.754Z,55.43
2023-02-15T17:08:03.518Z,56.71
2023-02-15T17:10:31.786Z,56.49
2023-02-15T17:13:03.006Z,55.89
2023-02-15T17:15:34.258Z,54.56
2023-02-15T17:18:10.154Z,54.71
2023-02-15T17:20:39.108Z,54.59
2023-02-15T17:23:06.685Z,55.06
2023-02-15T17:25:38.897Z,55.55
2023-02-15T17:28:06.493Z,54.54
2023-02-15T17:30:35.010Z,53.66
2023-02-15T17:33:03.589Z,52.47
2023-02-15T17:35:33.668Z,52.20
2023-02-15T17:38:21.276Z,52.66
2023-02-15T17:40:48.159Z,51.61
2023-02-15T17:43:14.648Z,51.97
2023-02-15T17:45:59.869Z,52.61
2023-02-15T17:48:39.181Z,52.11
2023-02-15T17:51:08.219Z,52.33
2023-02-15T17:53:35.052Z,52.11
2023-02-15T17:56:01.678Z,51.67
2023-02-15T17:58:28.218Z,52.15
2023-02-15T18:01:01.099Z,53.49
2023-02-15T18:03:39.306Z,53.15
2023-02-15T18:06:06.337Z,52.99
2023-02-15T18:08:32.824Z,52.93
2023-02-15T18:11:00.303Z,52.43
2023-02-15T18:13:26.901Z,53.45
2023-02-15T18:15:53.451Z,53.72
2023-02-15T18:18:20.745Z,53.80
2023-02-15T18:20:47.307Z,53.77
2023-02-15T18:23:19.662Z,53.72
2023-02-15T18:25:46.374Z,53.18
2023-02-15T18:28:12.939Z,53.56
2023-02-15T18:30:40.513Z,53.09
2023-02-15T18:33:22.373Z,53.22
2023-02-15T18:35:51.786Z,53.66
2023-02-15T18:38:18.452Z,53.30
2023-02-15T18:40:44.911Z,53.39
2023-02-15T18:43:13.140Z,54.33
2023-02-15T18:45:39.774Z,55.25
2023-02-15T18:48:06.374Z,54.94
2023-02-15T18:50:35.781Z,55.46
2023-02-15T18:53:03.922Z,55.61
2023-02-15T18:55:30.582Z,55.87
2023-02-15T18:57:57.444Z,56.39
2023-02-15T19:00:26.542Z,56.77
2023-02-15T19:02:53.038Z,57.01
2023-02-15T19:05:19.554Z,57.11
2023-02-15T19:07:46.801Z,56.04
2023-02-15T19:10:16.507Z,56.54
2023-02-15T19:12:43.590Z,56.63
2023-02-15T19:15:30.684Z,57.03
2023-02-15T19:17:57.311Z,56.43
2023-02-15T19:20:36.097Z,56.92
2023-02-15T19:23:03.267Z,56.19
2023-02-15T19:25:32.154Z,56.66
2023-02-15T19:27:59.030Z,56.64
2023-02-15T19:30:29.470Z,57.27
2023-02-15T19:32:57.632Z,57.23
2023-02-15T19:35:27.136Z,57.26
2023-02-15T19:37:55.717Z,56.48
2023-02-15T19:40:28.198Z,56.04
2023-02-15T19:42:54.784Z,56.96
2023-02-15T19:45:26.946Z,56.71
2023-02-15T19:47:56.384Z,57.85
2023-02-15T19:50:28.335Z,58.13
2023-02-15T19:52:55.141Z,59.43
2023-02-15T19:55:32.084Z,59.61
2023-02-15T19:57:59.555Z,61.06
2023-02-15T20:00:41.392Z,60.26
2023-02-15T20:03:07.939Z,59.93
2023-02-15T20:05:35.180Z,59.36
2023-02-15T20:08:01.898Z,58.76
2023-02-15T20:10:30.590Z,58.14
2023-02-15T20:12:57.742Z,59.04
2023-02-15T20:15:32.598Z,57.94
2023-02-15T20:18:00.723Z,58.61
2023-02-15T20:20:31.950Z,58.35
2023-02-15T20:22:58.512Z,58.68
2023-02-15T20:25:27.142Z,59.69
2023-02-15T20:27:53.774Z,59.81
2023-02-15T20:30:24.808Z,59.96
2023-02-15T20:32:51.363Z,60.73
2023-02-15T20:35:23.022Z,60.70
2023-02-15T20:37:54.566Z,61.00
2023-02-15T20:40:26.734Z,60.81
2023-02-15T20:42:53.618Z,61.19
2023-02-15T20:45:25.156Z,60.93
2023-02-15T20:47:52.722Z,60.78
2023-02-15T20:50:28.588Z,61.02
2023-02-15T20:52:59.854Z,61.31
2023-02-15T20:55:29.150Z,61.24
2023-02-15T20:57:56.220Z,61.27
2023-02-15T21:00:26.134Z,61.90
2023-02-15T21:02:57.965Z,61.98
2023-02-15T21:05:29.901Z,61.93
2023-02-15T21:07:57.730Z,62.36
2023-02-15T21:10:27.207Z,61.74
2023-02-15T21:12:53.934Z,61.15
2023-02-15T21:15:38.625Z,61.09
2023-02-15T21:18:32.677Z,61.29
2023-02-15T21:21:02.454Z,60.54
2023-02-15T21:23:34.133Z,60.85
2023-02-15T21:26:00.872Z,60.82
2023-02-15T21:28:29.032Z,60.17
2023-02-15T21:30:56.841Z,60.46
2023-02-15T21:33:24.364Z,61.32
2023-02-15T21:35:55.011Z,61.65
2023-02-15T21:38:23.344Z,61.29
2023-02-15T21:40:50.067Z,61.40
2023-02-15T21:43:24.207Z,61.93
2023-02-15T21:45:50.708Z,61.55
2023-02-15T21:48:17.415Z,61.64
2023-02-15T21:50:44.125Z,61.14
2023-02-15T21:53:13.603Z,60.78
2023-02-15T21:55:40.263Z,59.95
2023-02-15T21:58:06.738Z,59.78
2023-02-15T22:00:33.296Z,61.07
2023-02-15T22:03:00.187Z,61.29
2023-02-15T22:05:32.571Z,61.44
2023-02-15T22:08:00.080Z,61.95
2023-02-15T22:10:29.828Z,62.10
2023-02-15T22:12:56.407Z,62.26
2023-02-15T22:15:24.957Z,63.09
2023-02-15T22:17:51.950Z,62.80
2023-02-15T22:20:20.869Z,62.46
2023-02-15T22:22:47.908Z,63.37
2023-02-15T22:25:15.772Z,62.89
2023-02-15T22:27:42.881Z,63.46
2023-02-15T22:30:19.115Z,63.72
2023-02-15T22:32:45.731Z,63.49
2023-02-15T22:35:17.669Z,64.12
2023-02-15T22:37:44.187Z,64.01
2023-02-15T22:40:14.771Z,63.97
2023-02-15T22:42:42.707Z,64.22
2023-02-15T22:45:18.091Z,64.94
2023-02-15T22:47:45.359Z,64.43
2023-02-15T22:50:19.499Z,63.61
2023-02-15T22:52:46.161Z,63.94
2023-02-15T22:55:17.318Z,63.93
2023-02-15T22:57:45.364Z,64.44
2023-02-15T23:00:17.577Z,64.57
2023-02-15T23:02:44.674Z,64.23
2023-02-15T23:05:19.396Z,63.54
2023-02-15T23:07:46.819Z,62.80
2023-02-15T23:10:13.921Z,63.75
2023-02-15T23:12:40.416Z,63.57
2023-02-15T23:15:11.274Z,65.10
2023-02-15T23:17:37.764Z,64.48
2023-02-15T23:20:04.607Z,64.52
2023-02-15T23:22:31.111Z,64.52
2023-02-15T23:24:57.664Z,63.83
2023-02-15T23:27:24.307Z,63.20
2023-02-15T23:29:51.094Z,63.21
2023-02-15T23:32:18.168Z,62.58
2023-02-15T23:34:44.745Z,62.66
2023-02-15T23:37:12.193Z,61.83
2023-02-15T23:39:38.904Z,61.93
2023-02-15T23:42:09.031Z,61.23
2023-02-15T23:44:35.874Z,61.57
2023-02-15T23:47:02.481Z,61.43
2023-02-15T23:49:28.971Z,61.10
2023-02-15T23:51:57.272Z,60.91
2023-02-15T23:54:25.510Z,61.38
2023-02-15T23:57:00.747Z,61.22
2023-02-15T23:59:31.089Z,60.83
